Time;durP1;ratioP1;P1;durP2;ratioP2;P2;SDS_P1;SDS_P2;PMS_P1;PMS_P2;Temp;Humidity;BMP_temperature;BMP_pressure;BME280_temperature;BME280_humidity;BME280_pressure;Samples;Min_cycle;Max_cycle;Signal;HPM_P1;HPM_P2
2020/12/29 00:04:16;;;;;;;16.98;10.55;;;;;;;3.89;79.75;98112.00;10077499;28;20059;-66
2020/12/29 00:09:13;;;;;;;20.10;12.30;;;;;;;3.58;79.67;98119.50;10100872;28;20043;-68
2020/12/29 00:14:11;;;;;;;19.02;10.43;;;;;;;3.63;80.09;98104.19;10104243;28;20458;-67
2020/12/29 00:19:11;;;;;;;15.85;10.50;;;;;;;3.43;80.67;98106.63;10091805;28;20111;-65
2020/12/29 00:24:09;;;;;;;16.73;9.80;;;;;;;3.45;80.69;98114.41;10081155;28;20133;-67
2020/12/29 00:29:07;;;;;;;16.08;9.68;;;;;;;3.38;79.22;98109.53;10089474;28;20399;-66
2020/12/29 00:34:03;;;;;;;13.73;8.77;;;;;;;3.33;78.21;98107.06;10083876;28;20807;-66
2020/12/29 00:38:59;;;;;;;15.25;8.90;;;;;;;3.37;77.36;98091.78;10068523;28;20080;-66
2020/12/29 00:43:55;;;;;;;14.07;8.63;;;;;;;3.36;76.87;98092.88;10093056;28;20105;-67
2020/12/29 00:48:52;;;;;;;15.00;9.15;;;;;;;3.08;77.32;98101.56;10102898;28;20047;-67
2020/12/29 00:53:50;;;;;;;12.48;8.63;;;;;;;3.09;77.49;98092.38;10105342;28;20498;-67
2020/12/29 00:58:46;;;;;;;12.15;8.85;;;;;;;3.13;76.97;98098.69;10116672;28;20489;-67
2020/12/29 01:03:42;;;;;;;13.88;8.98;;;;;;;3.10;76.76;98088.53;10111467;28;20054;-67
2020/12/29 01:08:39;;;;;;;13.30;8.70;;;;;;;3.11;76.52;98086.59;10099732;28;20158;-68
2020/12/29 01:13:35;;;;;;;14.07;8.80;;;;;;;3.08;77.10;98079.97;10110440;28;20050;-67
2020/12/29 01:18:31;;;;;;;12.70;9.27;;;;;;;3.14;76.48;98083.25;10104047;28;20722;-66
2020/12/29 01:23:27;;;;;;;13.23;8.63;;;;;;;3.10;76.91;98085.81;10100175;28;20047;-67
2020/12/29 01:28:23;;;;;;;14.02;8.98;;;;;;;3.07;76.51;98083.81;10100078;28;20401;-65
2020/12/29 01:33:19;;;;;;;14.85;9.10;;;;;;;2.98;76.64;98083.09;10096889;28;20426;-67
2020/12/29 01:38:15;;;;;;;12.90;8.82;;;;;;;3.04;77.04;98089.06;10119355;28;20043;-66
2020/12/29 01:43:11;;;;;;;13.13;8.80;;;;;;;2.90;77.57;98083.94;10105807;28;20486;-66
2020/12/29 01:48:07;;;;;;;14.20;8.93;;;;;;;2.93;77.97;98083.31;10115869;28;20549;-66
2020/12/29 01:53:03;;;;;;;13.70;9.00;;;;;;;2.89;78.25;98076.97;10106253;28;20055;-67
2020/12/29 01:58:00;;;;;;;14.45;9.43;;;;;;;2.89;78.24;98077.75;10095715;28;20566;-67
2020/12/29 02:08:18;;;;;;;14.63;8.30;;;;;;;2.95;77.79;98070.28;11000489;23;20037;-66
2020/12/29 02:13:14;;;;;;;12.45;8.68;;;;;;;2.89;78.16;98076.97;10223661;28;20049;-65
2020/12/29 02:18:10;;;;;;;12.90;8.50;;;;;;;2.87;77.56;98073.81;10225854;28;20053;-65
2020/12/29 02:23:09;;;;;;;11.88;8.40;;;;;;;2.89;78.41;98066.97;10217601;28;20427;-67
2020/12/29 02:28:07;;;;;;;11.13;8.32;;;;;;;2.74;77.65;98068.38;10224515;28;20045;-66
2020/12/29 02:33:03;;;;;;;10.45;7.53;;;;;;;2.86;78.44;98073.03;10228528;28;20540;-67
2020/12/29 02:37:59;;;;;;;11.38;7.97;;;;;;;2.81;77.96;98069.75;10224411;28;20045;-66
2020/12/29 02:42:55;;;;;;;12.68;8.35;;;;;;;2.80;78.04;98068.16;10214200;28;20064;-66
2020/12/29 02:47:51;;;;;;;12.43;7.97;;;;;;;2.90;77.62;98068.56;10213230;28;20053;-65
2020/12/29 02:52:48;;;;;;;11.80;8.10;;;;;;;2.82;78.09;98065.94;10220288;28;20051;-67
2020/12/29 02:57:44;;;;;;;10.57;7.57;;;;;;;2.71;78.23;98066.31;10219823;28;20136;-67
2020/12/29 03:02:40;;;;;;;11.18;8.43;;;;;;;2.79;78.69;98066.59;10235902;28;20132;-66
2020/12/29 03:07:36;;;;;;;11.27;7.82;;;;;;;2.72;78.74;98067.91;10212006;28;20060;-66
2020/12/29 03:12:36;;;;;;;12.80;8.88;;;;;;;2.84;78.50;98080.66;10218609;28;20205;-66
2020/12/29 03:17:34;;;;;;;11.02;7.70;;;;;;;2.73;78.79;98074.88;10221404;28;20115;-64
2020/12/29 03:22:31;;;;;;;11.18;7.82;;;;;;;2.81;78.41;98084.03;10221626;28;20124;-66
2020/12/29 03:27:27;;;;;;;12.45;7.90;;;;;;;2.63;79.12;98091.47;10209449;28;20046;-66
2020/12/29 03:32:23;;;;;;;11.98;7.82;;;;;;;2.72;78.72;98092.19;10226908;28;20052;-66
2020/12/29 03:37:19;;;;;;;10.98;8.10;;;;;;;2.60;79.22;98094.03;10223943;28;20089;-67
2020/12/29 03:42:15;;;;;;;10.70;7.63;;;;;;;2.64;79.70;98087.66;10223613;28;20049;-65
2020/12/29 03:47:11;;;;;;;9.75;7.45;;;;;;;2.64;79.18;98095.75;10215645;28;20045;-64
2020/12/29 03:52:07;;;;;;;11.25;8.05;;;;;;;2.77;79.35;98090.44;10222143;28;20045;-63
2020/12/29 03:57:03;;;;;;;12.43;8.20;;;;;;;2.70;79.68;98097.13;10217579;28;20134;-66
2020/12/29 04:01:59;;;;;;;9.75;6.93;;;;;;;2.73;78.62;98091.06;10228706;28;20072;-66
2020/12/29 04:06:55;;;;;;;10.35;7.60;;;;;;;2.63;79.46;98102.28;10197094;28;20645;-66
2020/12/29 04:11:51;;;;;;;10.13;7.30;;;;;;;2.67;79.58;98097.81;10230385;28;20075;-66
2020/12/29 04:16:47;;;;;;;9.63;7.35;;;;;;;2.74;79.41;98095.38;10219989;28;20091;-66
2020/12/29 04:21:44;;;;;;;10.45;7.75;;;;;;;2.72;80.08;98100.28;10217491;28;20036;-65
2020/12/29 04:26:40;;;;;;;13.10;9.23;;;;;;;2.27;80.13;98098.22;10229788;28;20057;-63
2020/12/29 04:31:36;;;;;;;11.68;7.95;;;;;;;2.63;80.33;98098.78;10238561;28;20176;-65
2020/12/29 04:36:32;;;;;;;11.55;8.38;;;;;;;2.67;79.84;98103.19;10230831;28;20050;-65
2020/12/29 04:41:29;;;;;;;12.52;8.60;;;;;;;2.82;79.39;98103.72;10208694;28;20069;-65
2020/12/29 04:46:26;;;;;;;10.70;7.72;;;;;;;2.88;78.85;98102.41;10227387;28;20571;-64
2020/12/29 04:51:22;;;;;;;14.55;9.60;;;;;;;2.53;79.85;98099.97;10229250;28;20099;-66
2020/12/29 04:56:24;;;;;;;12.95;9.52;;;;;;;2.69;79.18;98100.97;10222821;28;20460;-65
2020/12/29 05:01:24;;;;;;;13.98;9.43;;;;;;;2.86;79.49;98104.63;10214921;28;20148;-67
2020/12/29 05:06:29;;;;;;;14.38;9.20;;;;;;;2.90;79.73;98105.53;10228554;28;20075;-66
2020/12/29 05:11:25;;;;;;;12.18;8.32;;;;;;;2.96;79.49;98101.53;10227826;28;20472;-66
2020/12/29 05:16:21;;;;;;;15.13;9.02;;;;;;;2.96;77.89;98098.81;10228934;28;20060;-66
2020/12/29 05:21:18;;;;;;;13.07;8.85;;;;;;;2.95;78.11;98106.13;10228624;28;20542;-67
2020/12/29 05:26:14;;;;;;;14.05;9.27;;;;;;;2.93;78.32;98110.28;10233800;28;20053;-66
2020/12/29 05:31:11;;;;;;;12.73;8.73;;;;;;;2.92;78.78;98114.09;10227112;28;20103;-66
2020/12/29 05:36:07;;;;;;;14.65;9.30;;;;;;;2.93;78.15;98096.78;10209013;28;20572;-66
2020/12/29 05:41:06;;;;;;;10.65;7.68;;;;;;;2.87;78.75;98108.91;10227364;28;20069;-66
2020/12/29 05:46:07;;;;;;;13.35;9.50;;;;;;;2.82;78.96;98115.28;10236562;28;20140;-66
2020/12/29 05:51:13;;;;;;;13.05;8.75;;;;;;;2.73;78.92;98112.66;10236338;28;20048;-67
2020/12/29 05:56:10;;;;;;;13.43;9.38;;;;;;;2.82;78.96;98112.59;10238754;28;20584;-65
2020/12/29 06:01:08;;;;;;;12.98;9.13;;;;;;;2.88;79.49;98107.81;10237739;28;20344;-66
2020/12/29 06:06:07;;;;;;;16.02;10.00;;;;;;;2.92;79.42;98109.50;10243847;28;20056;-66
2020/12/29 06:11:11;;;;;;;16.92;10.38;;;;;;;2.86;78.42;98107.34;10225655;28;20052;-67
2020/12/29 06:16:11;;;;;;;15.75;10.07;;;;;;;2.67;78.85;98111.28;10234676;28;20107;-64
2020/12/29 06:21:07;;;;;;;16.48;11.27;;;;;;;2.67;79.72;98122.09;10226535;28;20053;-66
2020/12/29 06:26:08;;;;;;;16.27;10.48;;;;;;;2.76;79.61;98121.22;10203299;28;20054;-67
2020/12/29 06:31:06;;;;;;;17.55;11.32;;;;;;;2.70;79.54;98129.50;10214414;28;20038;-68
2020/12/29 06:36:03;;;;;;;18.65;11.40;;;;;;;2.72;79.26;98132.69;10227341;28;20065;-67
2020/12/29 06:41:00;;;;;;;15.98;10.98;;;;;;;2.72;79.75;98142.69;10231094;28;20072;-67
2020/12/29 06:46:12;;;;;;;19.77;12.52;;;;;;;2.73;79.64;98147.72;10235299;28;20049;-66
2020/12/29 06:51:12;;;;;;;21.40;13.20;;;;;;;2.71;80.52;98147.25;10213342;28;20045;-66
2020/12/29 06:56:17;;;;;;;20.27;12.55;;;;;;;2.78;79.47;98145.97;10231253;28;20559;-67
2020/12/29 07:01:33;;;;;;;21.67;12.82;;;;;;;2.80;80.11;98157.22;10232357;28;20068;-66
2020/12/29 07:06:30;;;;;;;21.38;12.35;;;;;;;2.86;80.37;98161.31;10221876;28;20045;-67
2020/12/29 07:11:27;;;;;;;21.17;12.32;;;;;;;2.88;80.61;98167.19;10234269;28;20053;-66
2020/12/29 07:16:24;;;;;;;20.63;13.80;;;;;;;2.90;80.59;98175.72;10238494;28;20075;-66
2020/12/29 07:21:25;;;;;;;22.58;14.00;;;;;;;2.86;80.51;98182.91;10215192;28;20123;-66
2020/12/29 07:26:23;;;;;;;26.80;15.18;;;;;;;2.77;81.24;98182.19;10217542;28;20083;-66
2020/12/29 07:31:19;;;;;;;24.40;13.82;;;;;;;2.88;81.11;98188.78;10213479;28;20049;-66
2020/12/29 07:36:17;;;;;;;26.40;15.60;;;;;;;2.92;81.00;98195.88;10211534;28;20571;-66
2020/12/29 07:41:18;;;;;;;26.17;14.63;;;;;;;2.96;80.66;98217.59;10216600;28;20641;-65
2020/12/29 07:46:14;;;;;;;25.33;14.57;;;;;;;2.99;80.65;98227.72;10213877;28;20073;-63
2020/12/29 07:51:11;;;;;;;25.05;14.95;;;;;;;3.00;80.82;98237.41;10213484;28;20634;-67
2020/12/29 07:56:07;;;;;;;26.98;15.57;;;;;;;3.05;80.83;98236.44;10237269;28;20057;-67
2020/12/29 08:01:03;;;;;;;23.63;14.27;;;;;;;2.94;81.64;98241.41;10231767;28;20056;-66
2020/12/29 08:05:59;;;;;;;27.58;16.08;;;;;;;3.04;81.39;98251.84;10217804;28;20041;-64
2020/12/29 08:10:55;;;;;;;24.52;15.07;;;;;;;3.06;81.20;98271.19;10205057;28;20050;-65
2020/12/29 08:15:54;;;;;;;26.50;15.55;;;;;;;3.04;80.91;98273.44;10215784;28;20064;-67
2020/12/29 08:20:55;;;;;;;32.72;15.82;;;;;;;3.08;80.91;98274.34;10213662;28;20412;-66
2020/12/29 08:25:52;;;;;;;27.90;15.45;;;;;;;3.08;81.13;98279.75;10210467;28;20432;-67
2020/12/29 08:30:49;;;;;;;26.58;14.20;;;;;;;3.15;81.14;98285.41;10181542;28;20994;-67
2020/12/29 08:35:47;;;;;;;26.20;16.17;;;;;;;3.11;81.71;98289.91;10204033;28;20081;-68
2020/12/29 08:41:02;;;;;;;25.80;16.00;;;;;;;3.19;81.81;98301.78;10208850;28;20049;-67
2020/12/29 08:46:06;;;;;;;23.23;15.52;;;;;;;3.24;81.19;98308.91;10205187;28;20563;-67
2020/12/29 08:51:17;;;;;;;25.17;15.05;;;;;;;3.18;82.14;98308.31;10207219;28;20053;-65
2020/12/29 08:56:26;;;;;;;27.33;16.25;;;;;;;3.28;82.04;98304.41;10187590;28;20776;-69
2020/12/29 09:01:54;;;;;;;25.83;16.83;;;;;;;3.23;82.42;98318.13;10195593;28;20060;-67
2020/12/29 09:07:00;;;;;;;27.80;17.00;;;;;;;3.27;82.50;98319.03;10208463;28;20052;-63
2020/12/29 09:12:07;;;;;;;25.23;16.67;;;;;;;3.25;82.40;98329.38;10211814;28;20074;-64
2020/12/29 09:17:07;;;;;;;26.25;16.80;;;;;;;3.34;82.40;98330.09;10222346;28;20056;-68
2020/12/29 09:22:11;;;;;;;26.15;17.52;;;;;;;3.41;82.71;98346.56;10204554;28;20121;-65
2020/12/29 09:27:29;;;;;;;29.70;17.90;;;;;;;3.24;83.44;98357.50;10202494;28;20087;-65
2020/12/29 09:32:28;;;;;;;27.58;17.88;;;;;;;3.42;82.36;98358.97;10216720;28;20049;-65
2020/12/29 09:37:24;;;;;;;27.05;18.27;;;;;;;3.29;83.53;98376.22;10192046;28;20052;-64
2020/12/29 09:42:20;;;;;;;28.65;19.27;;;;;;;3.37;83.32;98388.88;10213318;28;20064;-63
2020/12/29 09:47:16;;;;;;;26.60;17.67;;;;;;;3.41;82.53;98400.59;10198266;28;20056;-64
2020/12/29 09:52:12;;;;;;;29.83;18.50;;;;;;;3.41;82.92;98400.59;10218603;28;20641;-64
2020/12/29 09:57:08;;;;;;;25.48;17.88;;;;;;;3.27;82.92;98408.16;10209256;28;20042;-64
2020/12/29 10:02:04;;;;;;;24.27;17.02;;;;;;;3.45;81.63;98406.94;10215330;28;20061;-65
2020/12/29 10:07:01;;;;;;;27.17;17.77;;;;;;;3.43;82.51;98417.28;10217630;28;20041;-64
2020/12/29 10:11:57;;;;;;;26.02;18.02;;;;;;;3.41;82.55;98422.22;10216604;28;20069;-64
2020/12/29 10:16:53;;;;;;;22.27;15.48;;;;;;;3.46;81.51;98427.44;10219302;28;20037;-63
2020/12/29 10:21:54;;;;;;;23.80;15.98;;;;;;;3.29;82.23;98419.44;10180771;28;20060;-63
2020/12/29 10:26:53;;;;;;;23.65;14.10;;;;;;;3.46;81.51;98403.13;10216885;28;20132;-64
2020/12/29 10:31:49;;;;;;;22.63;16.23;;;;;;;3.44;81.96;98410.78;10199701;28;20715;-64
2020/12/29 10:36:46;;;;;;;29.10;16.17;;;;;;;3.36;82.41;98419.72;10217591;28;20049;-65
2020/12/29 10:41:42;;;;;;;23.05;14.73;;;;;;;3.62;81.98;98426.88;10217811;28;20057;-63
2020/12/29 10:46:38;;;;;;;22.10;16.08;;;;;;;3.78;81.81;98426.00;10211521;28;20476;-63
2020/12/29 10:51:35;;;;;;;21.33;15.35;;;;;;;3.79;80.88;98405.16;10230004;28;20053;-62
2020/12/29 10:56:31;;;;;;;21.70;14.50;;;;;;;3.91;80.85;98402.50;10205410;28;20860;-63
2020/12/29 11:01:27;;;;;;;22.63;15.52;;;;;;;4.05;81.28;98406.84;10199460;28;20076;-65
2020/12/29 11:06:23;;;;;;;21.42;14.98;;;;;;;4.25;81.13;98416.88;10219703;28;20045;-65
2020/12/29 11:11:19;;;;;;;20.02;12.45;;;;;;;4.29;80.23;98417.78;10218360;28;20091;-65
2020/12/29 11:16:18;;;;;;;19.85;12.32;;;;;;;4.20;79.89;98423.28;10234350;28;20505;-65
2020/12/29 11:21:15;;;;;;;16.80;11.18;;;;;;;4.12;78.64;98426.06;10190229;28;20049;-65
2020/12/29 11:26:20;;;;;;;16.17;10.05;;;;;;;4.12;78.57;98423.34;10214272;28;20069;-64
2020/12/29 11:31:18;;;;;;;17.38;11.43;;;;;;;4.16;77.97;98416.94;10224929;28;20049;-65
2020/12/29 11:36:16;;;;;;;18.35;10.88;;;;;;;4.09;78.23;98419.38;10220584;28;20050;-64
2020/12/29 11:41:13;;;;;;;19.70;12.15;;;;;;;4.29;77.80;98425.88;10219345;28;20057;-66
2020/12/29 11:46:09;;;;;;;16.73;10.63;;;;;;;4.13;78.38;98435.72;10221025;28;20108;-65
2020/12/29 11:51:09;;;;;;;17.23;11.77;;;;;;;4.20;77.77;98430.56;10210192;28;20057;-65
2020/12/29 11:56:09;;;;;;;16.33;11.88;;;;;;;4.17;78.74;98425.84;10214422;28;20088;-64
2020/12/29 12:01:05;;;;;;;16.30;10.75;;;;;;;4.24;78.32;98431.50;10204559;28;20178;-65
2020/12/29 12:06:02;;;;;;;14.82;9.90;;;;;;;4.28;77.67;98431.66;10200003;28;20160;-64
2020/12/29 12:10:58;;;;;;;15.75;9.75;;;;;;;4.42;76.64;98438.34;10207066;28;20111;-66
2020/12/29 12:15:55;;;;;;;14.45;9.27;;;;;;;4.43;76.87;98439.94;10214828;28;20041;-64
2020/12/29 12:21:05;;;;;;;17.38;9.48;;;;;;;4.61;76.60;98450.59;10207535;28;20064;-65
2020/12/29 12:26:01;;;;;;;13.38;9.18;;;;;;;4.58;75.82;98452.06;10203706;28;20319;-65
2020/12/29 12:30:58;;;;;;;17.10;8.95;;;;;;;4.66;76.35;98461.22;10209791;28;20057;-66
2020/12/29 12:35:54;;;;;;;20.38;9.20;;;;;;;4.52;76.49;98469.63;10196623;28;20045;-66
2020/12/29 12:40:50;;;;;;;15.35;9.38;;;;;;;4.64;76.02;98487.81;10207644;28;20485;-67
2020/12/29 12:45:47;;;;;;;13.77;8.63;;;;;;;4.53;75.71;98487.44;10190077;28;20057;-67
2020/12/29 12:50:44;;;;;;;15.63;9.18;;;;;;;4.42;77.20;98503.28;10215188;28;20684;-67
2020/12/29 12:55:40;;;;;;;13.10;8.88;;;;;;;4.38;76.99;98510.47;10228940;28;20121;-65
2020/12/29 13:00:36;;;;;;;18.45;9.80;;;;;;;4.21;78.19;98519.53;10214059;28;20054;-68
2020/12/29 13:05:32;;;;;;;12.95;8.90;;;;;;;4.33;77.48;98521.50;10202623;28;20045;-64
2020/12/29 13:10:28;;;;;;;17.60;10.45;;;;;;;4.21;77.30;98532.25;10218373;28;20041;-66
2020/12/29 13:15:24;;;;;;;15.15;10.77;;;;;;;4.29;77.34;98542.22;10212814;28;20060;-66
2020/12/29 13:20:20;;;;;;;17.55;11.15;;;;;;;4.24;78.05;98550.53;10203501;28;20108;-66
2020/12/29 13:25:17;;;;;;;18.50;11.35;;;;;;;4.19;77.69;98559.63;10223997;28;20073;-66
2020/12/29 13:30:12;;;;;;;17.60;11.65;;;;;;;4.25;78.37;98565.66;10202705;28;20049;-66
2020/12/29 13:35:08;;;;;;;16.20;11.32;;;;;;;4.25;77.93;98584.59;10202366;28;20054;-66
2020/12/29 13:40:05;;;;;;;18.83;11.77;;;;;;;4.23;78.30;98589.53;10196167;28;20057;-65
2020/12/29 13:45:05;;;;;;;17.15;11.63;;;;;;;4.33;77.55;98613.50;10204318;28;20058;-63
2020/12/29 13:50:01;;;;;;;18.10;12.52;;;;;;;4.30;78.43;98619.56;10196545;28;20137;-65
2020/12/29 13:54:58;;;;;;;15.90;10.85;;;;;;;4.20;77.97;98619.91;10184438;28;20498;-65
2020/12/29 13:59:54;;;;;;;16.70;12.25;;;;;;;4.36;78.15;98623.69;10185691;28;20044;-64
2020/12/29 14:04:51;;;;;;;16.73;11.88;;;;;;;4.31;78.28;98625.75;10207885;28;20046;-66
2020/12/29 14:09:47;;;;;;;17.10;11.98;;;;;;;4.28;78.16;98632.63;10211507;28;21032;-65
2020/12/29 14:14:44;;;;;;;16.90;12.30;;;;;;;4.27;78.76;98641.88;10222161;28;20053;-66
2020/12/29 14:19:40;;;;;;;15.85;11.25;;;;;;;4.29;78.01;98646.94;10219545;28;20081;-65
2020/12/29 14:24:36;;;;;;;17.23;10.68;;;;;;;4.25;78.20;98660.34;10204826;28;20076;-65
2020/12/29 14:29:32;;;;;;;16.73;10.98;;;;;;;4.40;77.98;98651.66;10206021;28;20552;-66
2020/12/29 14:34:28;;;;;;;13.98;9.88;;;;;;;4.29;77.48;98655.84;10210580;28;20116;-66
2020/12/29 14:39:24;;;;;;;14.27;10.05;;;;;;;4.24;77.98;98664.16;10209498;28;20053;-65
2020/12/29 14:44:20;;;;;;;13.75;9.27;;;;;;;4.32;77.86;98674.16;10220706;28;20053;-66
2020/12/29 14:49:16;;;;;;;16.10;9.30;;;;;;;4.27;77.79;98674.34;10202529;28;20042;-66
2020/12/29 14:54:14;;;;;;;13.43;9.05;;;;;;;4.35;77.94;98678.09;10209931;28;20045;-65
2020/12/29 14:59:13;;;;;;;15.07;10.13;;;;;;;4.18;78.59;98684.41;10216824;28;20501;-64
2020/12/29 15:04:09;;;;;;;15.68;10.30;;;;;;;4.26;78.06;98688.97;10227357;28;20041;-65
2020/12/29 15:09:07;;;;;;;15.80;10.30;;;;;;;4.26;78.27;98699.78;10223777;28;20103;-63
2020/12/29 15:14:04;;;;;;;13.50;10.00;;;;;;;4.26;77.98;98699.78;10198896;28;20048;-65
2020/12/29 15:19:00;;;;;;;17.50;12.07;;;;;;;4.15;78.74;98714.78;10222869;28;20496;-65
2020/12/29 15:23:57;;;;;;;19.98;10.98;;;;;;;4.24;78.42;98718.25;10218319;28;20057;-64
2020/12/29 15:28:53;;;;;;;15.27;10.65;;;;;;;4.23;78.64;98724.78;10199128;28;20058;-63
2020/12/29 15:33:50;;;;;;;17.23;11.77;;;;;;;4.17;78.52;98734.19;10213091;28;20053;-65
2020/12/29 15:38:47;;;;;;;17.17;10.85;;;;;;;4.26;78.37;98737.66;10209681;28;20527;-65
2020/12/29 15:43:45;;;;;;;15.80;10.75;;;;;;;4.30;78.61;98744.00;10226183;28;20112;-65
2020/12/29 15:48:43;;;;;;;18.20;11.07;;;;;;;4.11;78.99;98747.09;10210472;28;20107;-65
2020/12/29 15:53:40;;;;;;;20.52;12.27;;;;;;;4.28;78.61;98757.06;10227961;28;20127;-66
2020/12/29 15:58:36;;;;;;;18.23;11.52;;;;;;;4.15;79.10;98766.16;10239699;28;20046;-64
2020/12/29 16:03:32;;;;;;;20.55;12.27;;;;;;;4.15;80.01;98774.28;10225722;28;20045;-65
2020/12/29 16:08:30;;;;;;;21.52;13.88;;;;;;;4.11;80.02;98773.38;10205279;28;20072;-66
2020/12/29 16:13:27;;;;;;;20.05;14.32;;;;;;;4.23;79.54;98787.00;10195590;28;20049;-65
2020/12/29 16:18:23;;;;;;;21.38;14.63;;;;;;;4.16;80.20;98784.00;10206633;28;20072;-65
2020/12/29 16:23:19;;;;;;;23.65;14.98;;;;;;;4.19;79.81;98780.66;10196667;28;20406;-64
2020/12/29 16:28:18;;;;;;;24.63;15.70;;;;;;;4.03;81.58;98803.91;10192021;28;21135;-63
2020/12/29 16:33:15;;;;;;;22.13;14.25;;;;;;;3.88;81.96;98797.09;10191201;28;20077;-65
2020/12/29 16:38:11;;;;;;;23.15;16.15;;;;;;;4.00;81.81;98806.13;10209438;28;20063;-66
2020/12/29 16:43:07;;;;;;;25.10;17.02;;;;;;;3.98;81.43;98819.19;10210042;28;20098;-64
2020/12/29 16:48:04;;;;;;;26.13;17.38;;;;;;;4.09;81.85;98821.56;10197433;28;20045;-64
2020/12/29 16:53:01;;;;;;;26.60;17.25;;;;;;;4.12;81.74;98829.03;10176882;28;20053;-67
2020/12/29 16:57:58;;;;;;;29.45;18.13;;;;;;;4.16;81.94;98846.22;10183772;28;20045;-64
2020/12/29 17:02:54;;;;;;;28.98;19.70;;;;;;;4.11;82.56;98843.69;10188003;28;20046;-62
2020/12/29 17:07:50;;;;;;;31.40;20.33;;;;;;;4.00;83.50;98859.44;10197647;28;20064;-62
2020/12/29 17:12:46;;;;;;;33.25;19.65;;;;;;;3.82;84.91;98864.03;10197500;28;20073;-64
2020/12/29 17:17:42;;;;;;;26.05;17.10;;;;;;;3.64;85.54;98859.75;10223135;28;20459;-66
2020/12/29 17:22:39;;;;;;;26.27;16.88;;;;;;;3.68;85.13;98875.00;10217513;28;20054;-65
2020/12/29 17:27:35;;;;;;;23.67;15.73;;;;;;;3.57;84.49;98879.13;10192228;28;20037;-64
2020/12/29 17:32:32;;;;;;;22.10;14.48;;;;;;;3.70;84.24;98888.22;10182064;28;20045;-64
2020/12/29 17:37:28;;;;;;;22.85;15.02;;;;;;;3.57;84.54;98885.34;10215385;28;20045;-66
2020/12/29 17:42:29;;;;;;;25.40;16.00;;;;;;;3.73;83.72;98898.38;10223298;28;20049;-66
2020/12/29 17:47:32;;;;;;;23.17;16.55;;;;;;;3.71;82.98;98896.03;10197759;28;20100;-65
2020/12/29 17:52:29;;;;;;;20.60;13.93;;;;;;;3.79;82.54;98891.72;10208292;28;20042;-66
2020/12/29 17:57:25;;;;;;;24.88;16.02;;;;;;;3.90;82.96;98898.41;10199900;28;20057;-65
2020/12/29 18:02:21;;;;;;;22.52;15.15;;;;;;;3.97;81.86;98893.31;10215744;28;20040;-65
2020/12/29 18:07:17;;;;;;;20.35;13.80;;;;;;;3.88;82.46;98900.63;10212273;28;20045;-66
2020/12/29 18:12:14;;;;;;;20.08;13.23;;;;;;;3.87;82.58;98904.44;10224709;28;20084;-65
2020/12/29 18:17:10;;;;;;;31.08;18.95;;;;;;;3.91;81.86;98913.50;10210257;28;20441;-65
2020/12/29 18:22:06;;;;;;;18.60;12.43;;;;;;;3.79;82.79;98916.06;10213830;28;20042;-65
2020/12/29 18:27:02;;;;;;;19.95;13.38;;;;;;;3.80;82.33;98923.03;10210294;28;20540;-63
2020/12/29 18:31:58;;;;;;;21.05;14.10;;;;;;;3.68;83.05;98928.28;10204993;28;20041;-64
2020/12/29 18:36:54;;;;;;;19.95;13.55;;;;;;;3.76;83.38;98930.19;10204810;28;20065;-64
2020/12/29 18:41:51;;;;;;;19.13;12.13;;;;;;;3.61;83.76;98944.16;10214720;28;20108;-64
2020/12/29 18:46:47;;;;;;;17.90;11.77;;;;;;;3.63;83.29;98950.06;10216772;28;20077;-66
2020/12/29 18:51:44;;;;;;;14.98;10.70;;;;;;;3.66;83.17;98947.50;10208605;28;20053;-65
2020/12/29 18:56:46;;;;;;;13.50;9.27;;;;;;;3.68;82.99;98966.13;10195444;28;20508;-65
2020/12/29 19:01:45;;;;;;;13.30;8.30;;;;;;;3.59;83.19;98964.19;10182852;28;20056;-64
2020/12/29 19:06:42;;;;;;;12.73;7.68;;;;;;;3.49;82.50;98969.88;10187398;28;20061;-65
2020/12/29 19:11:38;;;;;;;12.65;7.57;;;;;;;3.53;82.11;98986.28;10196098;28;20054;-65
2020/12/29 19:16:34;;;;;;;10.88;6.90;;;;;;;3.34;82.56;98989.19;10205084;28;20042;-65
2020/12/29 19:21:31;;;;;;;12.48;7.38;;;;;;;3.34;82.96;98994.59;10227475;28;20467;-64
2020/12/29 19:26:28;;;;;;;10.98;7.10;;;;;;;3.36;82.94;98997.78;10225496;28;20112;-65
2020/12/29 19:31:24;;;;;;;12.55;7.43;;;;;;;3.26;83.74;98998.09;10210784;28;20122;-65
2020/12/29 19:36:20;;;;;;;9.77;6.35;;;;;;;3.33;83.72;99022.75;10208468;28;20057;-66
2020/12/29 19:41:16;;;;;;;9.95;5.63;;;;;;;3.22;83.83;99024.91;10227701;28;20052;-64
2020/12/29 19:46:14;;;;;;;8.82;5.75;;;;;;;3.28;83.72;99039.09;10199551;28;20081;-65
2020/12/29 19:51:12;;;;;;;7.20;3.83;;;;;;;2.99;82.96;99040.34;10190925;28;20140;-65
2020/12/29 19:56:09;;;;;;;6.00;4.10;;;;;;;3.06;83.48;99048.00;10215352;28;20552;-62
2020/12/29 20:01:19;;;;;;;5.88;3.75;;;;;;;3.02;84.16;99058.66;10192267;28;20050;-65
2020/12/29 20:06:17;;;;;;;5.88;3.70;;;;;;;2.88;83.82;99066.03;10194271;28;20053;-64
2020/12/29 20:11:13;;;;;;;5.82;3.83;;;;;;;2.72;83.91;99077.16;10196567;28;20064;-65
2020/12/29 20:16:09;;;;;;;6.80;3.97;;;;;;;2.80;84.25;99088.34;10174240;28;20073;-66
2020/12/29 20:21:05;;;;;;;5.07;3.08;;;;;;;2.70;84.22;99100.97;10209702;28;20041;-63
2020/12/29 20:26:05;;;;;;;5.18;3.42;;;;;;;2.88;83.95;99093.00;10238077;28;20049;-63
2020/12/29 20:31:02;;;;;;;5.47;3.72;;;;;;;2.79;84.40;99097.53;10208135;28;20099;-64
2020/12/29 20:35:58;;;;;;;7.03;3.90;;;;;;;2.99;84.17;99091.63;10202550;28;20065;-65
2020/12/29 20:40:54;;;;;;;5.68;4.47;;;;;;;3.00;83.14;99098.66;10222426;28;20104;-65
2020/12/29 20:45:55;;;;;;;7.53;5.65;;;;;;;3.02;83.71;99101.84;10209645;28;20076;-64
2020/12/29 20:50:51;;;;;;;6.75;5.00;;;;;;;3.00;82.88;99101.34;10213427;28;20107;-64
2020/12/29 20:55:47;;;;;;;6.88;5.32;;;;;;;3.09;83.03;99117.63;10194484;28;20775;-64
2020/12/29 21:00:43;;;;;;;9.23;5.32;;;;;;;3.17;83.01;99116.88;10216160;28;20100;-65
2020/12/29 21:05:39;;;;;;;7.32;5.07;;;;;;;3.05;82.51;99128.22;10203547;28;20053;-65
2020/12/29 21:10:40;;;;;;;7.22;5.18;;;;;;;3.10;82.15;99141.59;10201646;28;20049;-65
2020/12/29 21:15:36;;;;;;;7.10;5.30;;;;;;;3.09;82.31;99150.81;10221887;28;20574;-64
2020/12/29 21:20:33;;;;;;;7.65;5.30;;;;;;;3.00;82.26;99155.34;10213871;28;20104;-65
2020/12/29 21:25:31;;;;;;;7.65;5.60;;;;;;;3.00;82.74;99158.06;10230507;28;20045;-65
2020/12/29 21:30:27;;;;;;;9.85;5.38;;;;;;;3.07;82.46;99173.84;10207536;28;20056;-68
2020/12/29 21:35:23;;;;;;;7.88;5.93;;;;;;;2.94;82.78;99180.88;10216520;28;20586;-66
2020/12/29 21:40:19;;;;;;;7.63;6.07;;;;;;;2.90;83.19;99175.28;10218972;28;21993;-66
2020/12/29 21:45:18;;;;;;;9.30;5.88;;;;;;;2.93;82.70;99184.69;10204274;28;20053;-66
2020/12/29 21:50:15;;;;;;;8.95;6.25;;;;;;;2.87;82.09;99180.47;10214528;28;20053;-66
2020/12/29 21:55:11;;;;;;;10.18;7.47;;;;;;;3.02;82.44;99177.44;10228647;28;20057;-66
2020/12/29 22:00:08;;;;;;;10.48;6.82;;;;;;;3.09;82.18;99183.22;10222113;28;20053;-66
2020/12/29 22:05:04;;;;;;;10.27;8.07;;;;;;;3.12;82.29;99193.41;10223007;28;20051;-66
2020/12/29 22:10:00;;;;;;;10.38;7.25;;;;;;;3.17;82.07;99201.38;10205273;28;20198;-64
2020/12/29 22:14:58;;;;;;;9.77;7.25;;;;;;;3.01;82.94;99205.53;10219316;28;20108;-65
2020/12/29 22:19:54;;;;;;;9.90;7.65;;;;;;;3.01;83.70;99208.25;10228882;28;20631;-66
2020/12/29 22:24:50;;;;;;;10.25;7.20;;;;;;;3.20;83.27;99207.28;10223451;28;20157;-66
2020/12/29 22:29:46;;;;;;;10.27;7.72;;;;;;;3.15;83.06;99211.69;10212106;28;20046;-64
2020/12/29 22:34:42;;;;;;;11.57;8.02;;;;;;;3.04;83.79;99221.16;10235930;28;20774;-63
2020/12/29 22:39:38;;;;;;;12.38;8.55;;;;;;;3.03;84.07;99222.25;10219519;28;20059;-63
2020/12/29 22:44:36;;;;;;;12.32;8.85;;;;;;;3.17;84.00;99225.69;10226853;28;20497;-61
2020/12/29 22:49:32;;;;;;;14.52;10.00;;;;;;;3.14;84.71;99234.41;10219775;28;20053;-62
2020/12/29 22:54:28;;;;;;;16.75;11.10;;;;;;;3.15;84.87;99233.31;10201509;28;20413;-66
2020/12/29 22:59:24;;;;;;;16.60;12.68;;;;;;;3.06;85.79;99237.81;10208964;28;20730;-66
2020/12/29 23:04:20;;;;;;;23.42;14.68;;;;;;;3.12;86.35;99242.03;10222522;28;20040;-66